Time;durP1;ratioP1;P1;durP2;ratioP2;P2;SDS_P1;SDS_P2;PMS_P1;PMS_P2;Temp;Humidity;BMP_temperature;BMP_pressure;BME280_temperature;BME280_humidity;BME280_pressure;Samples;Min_cycle;Max_cycle;Signal;HPM_P1;HPM_P2
2022/12/12 00:00:58;;;;;;;5.07;3.80;;;23.10;61.40;;;;;;5050367;28;20680;-47
2022/12/12 00:03:24;;;;;;;4.50;3.50;;;23.10;61.30;;;;;;5046230;28;20197;-46
2022/12/12 00:05:53;;;;;;;4.00;3.50;;;23.10;61.40;;;;;;5053849;28;20200;-43
2022/12/12 00:08:20;;;;;;;4.45;3.40;;;23.10;62.10;;;;;;5049610;28;20196;-48
2022/12/12 00:10:47;;;;;;;3.70;3.28;;;23.20;61.20;;;;;;5046355;28;20267;-44
2022/12/12 00:13:15;;;;;;;4.38;3.22;;;23.20;61.00;;;;;;5049807;28;20587;-44
2022/12/12 00:15:41;;;;;;;4.50;3.40;;;23.20;61.00;;;;;;5051235;28;20221;-43
2022/12/12 00:18:08;;;;;;;3.75;3.22;;;23.20;61.00;;;;;;5050529;28;21034;-43
2022/12/12 00:20:35;;;;;;;4.47;3.50;;;23.10;61.10;;;;;;5045275;28;20219;-43
2022/12/12 00:23:01;;;;;;;3.55;3.20;;;23.10;61.30;;;;;;5045510;28;20443;-37
2022/12/12 00:25:28;;;;;;;4.00;3.60;;;23.00;61.60;;;;;;5047451;28;20697;-37
2022/12/12 00:27:55;;;;;;;10.30;3.55;;;22.90;62.10;;;;;;5044913;28;20211;-38
2022/12/12 00:30:23;;;;;;;5.60;3.80;;;22.80;62.20;;;;;;5047722;28;20204;-37
2022/12/12 00:32:50;;;;;;;6.60;3.50;;;22.70;62.60;;;;;;5049484;28;20196;-37
2022/12/12 00:35:16;;;;;;;7.20;3.13;;;22.60;62.60;;;;;;5047299;28;20467;-37
2022/12/12 00:37:43;;;;;;;4.85;3.13;;;22.50;62.60;;;;;;5050099;28;20200;-39
2022/12/12 00:40:12;;;;;;;3.70;3.40;;;22.50;62.60;;;;;;5048721;28;20205;-37
2022/12/12 00:42:39;;;;;;;5.85;2.83;;;22.50;62.70;;;;;;5045672;28;20461;-37
2022/12/12 00:45:06;;;;;;;11.40;3.63;;;22.40;62.70;;;;;;5051226;28;20564;-37
2022/12/12 00:47:34;;;;;;;3.33;2.97;;;22.40;62.70;;;;;;5049746;28;20465;-38
2022/12/12 00:50:01;;;;;;;2.85;2.55;;;22.40;62.70;;;;;;5048551;28;20201;-38
2022/12/12 00:52:28;;;;;;;4.75;3.55;;;22.30;62.50;;;;;;5040419;28;20275;-38
2022/12/12 00:54:55;;;;;;;4.63;3.08;;;22.30;62.40;;;;;;5049735;28;20203;-36
2022/12/12 00:57:21;;;;;;;5.85;3.13;;;22.30;62.30;;;;;;5051400;28;20196;-37
2022/12/12 00:59:48;;;;;;;3.85;2.90;;;22.30;62.30;;;;;;5048507;28;20607;-37
2022/12/12 01:02:15;;;;;;;5.35;3.30;;;22.30;62.30;;;;;;5049278;28;20205;-36
2022/12/12 01:04:43;;;;;;;2.97;2.58;;;22.30;62.30;;;;;;5046404;28;20207;-37
2022/12/12 01:07:09;;;;;;;3.70;3.00;;;22.30;62.40;;;;;;5045509;28;20211;-38
2022/12/12 01:09:37;;;;;;;3.55;3.17;;;22.20;62.20;;;;;;5048552;28;20195;-40
2022/12/12 01:12:04;;;;;;;3.40;2.60;;;22.20;63.00;;;;;;5047421;28;20289;-37
2022/12/12 01:14:31;;;;;;;4.65;3.42;;;22.20;62.00;;;;;;5049227;28;20192;-36
2022/12/12 01:16:58;;;;;;;2.92;2.63;;;22.20;62.00;;;;;;5047892;28;20197;-39
2022/12/12 01:19:24;;;;;;;3.58;2.72;;;22.20;62.00;;;;;;5051743;28;20228;-37
2022/12/12 01:21:52;;;;;;;2.97;2.75;;;22.20;61.90;;;;;;5046800;28;20206;-37
2022/12/12 01:24:19;;;;;;;3.20;2.90;;;22.30;62.00;;;;;;5047704;28;20195;-37
2022/12/12 01:26:46;;;;;;;3.00;2.70;;;22.20;61.80;;;;;;5045493;28;20193;-42
2022/12/12 01:29:12;;;;;;;4.93;4.07;;;22.20;61.80;;;;;;5044526;28;20686;-37
2022/12/12 01:31:39;;;;;;;3.58;2.80;;;22.20;61.80;;;;;;5048454;28;20204;-37
2022/12/12 01:34:06;;;;;;;3.17;2.65;;;22.20;62.50;;;;;;5050798;28;20196;-37
2022/12/12 01:36:33;;;;;;;5.13;2.50;;;22.20;61.80;;;;;;5046200;28;20695;-37
2022/12/12 01:39:02;;;;;;;4.38;3.45;;;22.20;61.70;;;;;;5047503;28;20556;-43
2022/12/12 01:41:28;;;;;;;2.83;2.33;;;22.20;61.70;;;;;;5042760;28;20282;-39
2022/12/12 01:43:56;;;;;;;3.30;2.63;;;22.20;61.70;;;;;;5047655;28;20207;-37
2022/12/12 01:46:40;;;;;;;3.55;3.15;;;22.20;61.70;;;;;;5049257;28;20201;-38
2022/12/12 01:49:23;;;;;;;3.05;2.78;;;22.20;61.70;;;;;;5043456;28;20584;-40
2022/12/12 01:51:52;;;;;;;4.82;3.17;;;22.20;61.70;;;;;;5046316;28;20199;-39
2022/12/12 01:54:27;;;;;;;3.92;3.53;;;22.20;61.60;;;;;;5042569;28;20679;-37
2022/12/12 01:56:55;;;;;;;3.10;2.80;;;22.20;61.70;;;;;;5035519;28;20192;-36
2022/12/12 01:59:25;;;;;;;3.60;3.10;;;22.20;61.70;;;;;;5044458;28;20231;-36
2022/12/12 02:01:53;;;;;;;3.25;2.63;;;22.20;61.70;;;;;;5049868;28;20192;-36
2022/12/12 02:04:22;;;;;;;4.00;3.58;;;22.20;61.60;;;;;;5049236;28;20197;-39
2022/12/12 02:06:50;;;;;;;3.95;3.20;;;22.20;61.50;;;;;;5047558;28;20189;-42
2022/12/12 02:09:17;;;;;;;4.03;3.20;;;22.20;61.50;;;;;;5047716;28;20211;-39
2022/12/12 02:11:48;;;;;;;5.53;3.53;;;22.20;61.50;;;;;;5045617;28;20196;-37
2022/12/12 02:14:18;;;;;;;2.83;2.63;;;22.20;61.50;;;;;;5046769;28;20200;-40
2022/12/12 02:16:59;;;;;;;3.55;3.25;;;22.20;61.60;;;;;;5045199;28;20192;-38
2022/12/12 02:20:16;;;;;;;2.83;2.63;;;22.10;61.50;;;;;;5048462;28;20235;-37
2022/12/12 02:23:04;;;;;;;4.20;3.30;;;22.10;61.50;;;;;;5002102;28;20207;-36
2022/12/12 02:25:53;;;;;;;4.55;3.30;;;22.10;61.50;;;;;;5052041;28;20198;-39
2022/12/12 02:29:00;;;;;;;3.30;3.00;;;22.10;61.50;;;;;;5049390;28;20207;-36
2022/12/12 02:31:34;;;;;;;3.10;2.80;;;22.10;61.50;;;;;;5039926;28;20194;-36
2022/12/12 02:34:06;;;;;;;2.50;2.25;;;22.10;61.50;;;;;;5050601;28;20206;-41
2022/12/12 02:36:43;;;;;;;2.80;2.60;;;22.10;61.60;;;;;;5041247;28;20227;-36
2022/12/12 02:39:18;;;;;;;3.03;2.72;;;22.10;61.70;;;;;;5048427;28;20218;-37
2022/12/12 02:41:52;;;;;;;3.83;3.40;;;22.00;61.50;;;;;;5050424;28;20927;-41
2022/12/12 02:44:25;;;;;;;3.42;2.70;;;22.00;61.50;;;;;;5045230;28;20287;-37
2022/12/12 02:47:01;;;;;;;3.65;3.28;;;22.00;61.50;;;;;;5053207;28;20196;-36
2022/12/12 02:49:32;;;;;;;3.17;2.88;;;22.00;61.50;;;;;;5053413;28;20677;-39
2022/12/12 02:52:01;;;;;;;4.97;3.20;;;22.00;61.50;;;;;;5047005;28;20203;-39
2022/12/12 02:54:28;;;;;;;2.97;2.70;;;22.00;61.50;;;;;;5051251;28;20208;-43
2022/12/12 02:56:56;;;;;;;2.92;2.63;;;22.00;61.60;;;;;;5045317;28;20200;-36
2022/12/12 02:59:26;;;;;;;3.78;2.80;;;22.00;61.60;;;;;;5045945;28;20218;-37
2022/12/12 03:02:31;;;;;;;3.30;3.00;;;22.00;61.50;;;;;;5054295;28;20192;-36
2022/12/12 03:08:04;;;;;;;3.55;2.90;;;22.00;61.50;;;;;;5042330;28;20204;-37
2022/12/12 03:10:45;;;;;;;3.20;2.78;;;22.00;61.60;;;;;;5053408;28;20199;-36
2022/12/12 03:13:20;;;;;;;4.82;2.97;;;21.90;61.50;;;;;;5040007;28;20227;-38
2022/12/12 03:15:56;;;;;;;2.85;2.55;;;21.90;61.50;;;;;;5053904;28;20199;-37
2022/12/12 03:18:31;;;;;;;3.45;2.95;;;22.00;61.60;;;;;;5053466;28;20574;-36
2022/12/12 03:21:03;;;;;;;3.47;2.78;;;21.90;61.50;;;;;;5042865;28;20211;-36
2022/12/12 03:23:35;;;;;;;3.63;2.83;;;21.90;61.50;;;;;;5054195;28;20199;-37
2022/12/12 03:26:06;;;;;;;3.42;3.13;;;21.90;61.50;;;;;;5047797;28;20578;-39
2022/12/12 03:28:37;;;;;;;2.92;2.67;;;21.90;61.60;;;;;;5046108;28;20564;-36
2022/12/12 03:31:09;;;;;;;3.25;2.22;;;21.90;61.50;;;;;;5051240;28;20211;-40
2022/12/12 03:33:42;;;;;;;4.13;3.28;;;21.90;61.50;;;;;;5048996;28;20561;-37
2022/12/12 03:36:15;;;;;;;3.65;3.35;;;21.90;61.50;;;;;;5048167;28;20607;-37
2022/12/12 03:38:47;;;;;;;3.25;2.60;;;21.90;61.50;;;;;;5054167;28;20571;-36
2022/12/12 03:41:19;;;;;;;3.13;2.83;;;21.90;61.40;;;;;;5046064;28;20212;-36
2022/12/12 03:43:50;;;;;;;2.60;2.38;;;21.90;61.40;;;;;;5043529;28;20205;-40
2022/12/12 03:46:20;;;;;;;2.83;2.63;;;21.90;61.40;;;;;;5044283;28;20210;-41
2022/12/12 03:48:56;;;;;;;3.15;2.85;;;21.90;62.20;;;;;;5050173;28;20210;-37
2022/12/12 03:51:28;;;;;;;3.28;2.97;;;21.90;61.40;;;;;;5045339;28;20204;-37
2022/12/12 03:53:59;;;;;;;2.78;2.38;;;21.90;61.40;;;;;;5048512;28;20192;-37
2022/12/12 03:56:29;;;;;;;3.10;2.70;;;21.90;61.30;;;;;;5047020;28;20203;-37
2022/12/12 03:59:02;;;;;;;2.50;2.30;;;22.00;61.40;;;;;;5042269;28;20585;-36
2022/12/12 04:01:36;;;;;;;2.45;2.17;;;22.00;61.30;;;;;;5033237;28;20676;-38
2022/12/12 04:04:14;;;;;;;3.65;3.13;;;22.00;61.30;;;;;;5051563;28;20192;-40
2022/12/12 04:06:46;;;;;;;3.08;2.40;;;21.90;61.20;;;;;;5052143;28;20290;-39
2022/12/12 04:15:29;;;;;;;2.75;2.55;;;22.00;61.40;;;;;;5052986;28;20222;-37
2022/12/12 04:18:08;;;;;;;3.50;2.90;;;22.00;61.30;;;;;;5051869;28;20191;-37
2022/12/12 04:23:34;;;;;;;2.40;2.15;;;21.90;61.10;;;;;;5049303;28;20564;-36
2022/12/12 04:29:01;;;;;;;2.72;2.30;;;22.00;61.20;;;;;;5047237;28;20303;-39
2022/12/12 04:31:30;;;;;;;2.97;2.67;;;21.90;61.10;;;;;;5052622;28;20195;-37
2022/12/12 04:34:03;;;;;;;2.70;2.50;;;21.90;61.10;;;;;;5052542;28;20200;-36
2022/12/12 04:36:33;;;;;;;3.05;2.75;;;21.90;61.20;;;;;;5049198;28;20215;-37
2022/12/12 04:39:01;;;;;;;2.58;2.38;;;21.80;61.20;;;;;;5044375;28;20231;-41
2022/12/12 04:41:31;;;;;;;2.67;2.47;;;21.80;61.50;;;;;;5047424;28;20196;-40
2022/12/12 04:43:59;;;;;;;3.03;2.50;;;21.70;62.30;;;;;;5050448;28;20196;-37
2022/12/12 04:46:29;;;;;;;3.47;2.88;;;21.70;61.70;;;;;;5051404;28;20568;-38
2022/12/12 04:49:00;;;;;;;2.45;2.22;;;21.60;61.80;;;;;;5039665;28;20728;-37
2022/12/12 04:51:30;;;;;;;3.20;2.78;;;21.50;61.80;;;;;;5045130;28;20660;-36
2022/12/12 04:54:02;;;;;;;2.78;2.17;;;21.40;62.00;;;;;;5050976;28;20207;-36
2022/12/12 04:56:31;;;;;;;2.83;2.53;;;21.40;62.10;;;;;;5046612;28;20572;-36
2022/12/12 04:58:58;;;;;;;3.15;2.85;;;21.40;62.10;;;;;;5043348;28;20192;-36
2022/12/12 05:01:33;;;;;;;2.92;2.38;;;21.50;62.00;;;;;;5045898;28;20197;-37
2022/12/12 05:04:04;;;;;;;3.10;2.60;;;21.60;61.70;;;;;;5042925;28;20199;-37
2022/12/12 05:06:35;;;;;;;3.58;3.03;;;21.70;61.60;;;;;;5054096;28;20205;-37
2022/12/12 05:09:03;;;;;;;4.03;2.78;;;21.80;61.30;;;;;;5047701;28;20192;-37
2022/12/12 05:11:30;;;;;;;2.50;2.28;;;21.90;61.10;;;;;;5043157;28;20200;-38
2022/12/12 05:13:57;;;;;;;2.95;2.65;;;22.00;60.90;;;;;;5047720;28;20541;-38
2022/12/12 05:16:29;;;;;;;2.38;2.17;;;22.10;60.90;;;;;;5049192;28;20199;-39
2022/12/12 05:18:56;;;;;;;3.10;2.65;;;22.20;60.70;;;;;;5045588;28;20198;-36
2022/12/12 05:21:23;;;;;;;2.38;1.90;;;22.20;60.60;;;;;;5040488;28;20203;-38
2022/12/12 05:23:49;;;;;;;2.65;2.45;;;22.20;60.50;;;;;;5045998;28;20208;-37
2022/12/12 05:26:21;;;;;;;3.45;2.70;;;22.20;60.40;;;;;;5049179;28;20203;-36
2022/12/12 05:28:48;;;;;;;3.75;2.40;;;22.20;60.30;;;;;;5048479;28;20200;-37
2022/12/12 05:31:15;;;;;;;2.60;2.40;;;22.20;60.50;;;;;;5049785;28;20211;-37
2022/12/12 05:33:42;;;;;;;2.53;2.33;;;22.20;60.70;;;;;;5050055;28;20200;-36
2022/12/12 05:36:09;;;;;;;3.03;2.72;;;22.20;60.80;;;;;;5044076;28;20195;-39
2022/12/12 05:38:36;;;;;;;2.70;2.50;;;22.20;60.80;;;;;;5048899;28;20197;-36
2022/12/12 05:41:03;;;;;;;3.78;3.47;;;22.10;60.90;;;;;;5045160;28;20220;-39
2022/12/12 05:43:32;;;;;;;2.80;2.45;;;22.10;60.90;;;;;;5045546;28;20258;-41
2022/12/12 05:45:59;;;;;;;2.97;2.28;;;22.10;61.00;;;;;;5045098;28;20205;-41
2022/12/12 05:48:26;;;;;;;2.50;1.92;;;22.00;60.90;;;;;;5049973;28;20655;-37
2022/12/12 05:50:53;;;;;;;3.28;2.65;;;22.00;61.10;;;;;;5048733;28;20200;-40
2022/12/12 05:53:20;;;;;;;2.40;2.20;;;22.00;61.20;;;;;;5048105;28;20196;-37
2022/12/12 05:55:50;;;;;;;2.33;2.13;;;21.90;61.20;;;;;;5048182;28;21295;-40
2022/12/12 05:58:17;;;;;;;2.72;2.53;;;21.90;61.20;;;;;;5049094;28;20207;-39
2022/12/12 06:00:47;;;;;;;3.20;2.65;;;21.90;61.40;;;;;;5052725;28;20223;-36
2022/12/12 06:03:14;;;;;;;2.50;2.30;;;21.90;61.40;;;;;;5050769;28;20204;-37
2022/12/12 06:05:41;;;;;;;2.55;2.35;;;21.80;61.40;;;;;;5046106;28;20199;-37
2022/12/12 06:08:08;;;;;;;3.25;2.72;;;21.80;61.40;;;;;;5036659;28;20568;-37
2022/12/12 06:10:35;;;;;;;3.03;2.72;;;21.80;61.50;;;;;;5049342;28;22203;-36
2022/12/12 06:13:01;;;;;;;2.25;2.05;;;21.80;61.50;;;;;;5033135;28;20197;-39
2022/12/12 06:15:28;;;;;;;2.40;2.10;;;21.80;61.50;;;;;;5048797;28;20196;-37
2022/12/12 06:17:57;;;;;;;2.30;2.10;;;21.80;61.70;;;;;;5053016;28;20203;-36
2022/12/12 06:20:24;;;;;;;2.33;2.13;;;21.80;61.50;;;;;;5048111;28;20616;-38
2022/12/12 06:22:50;;;;;;;2.63;2.42;;;21.80;61.50;;;;;;5054873;28;20193;-37
2022/12/12 06:25:17;;;;;;;3.55;3.25;;;21.80;61.50;;;;;;5046619;28;20199;-37
2022/12/12 06:27:44;;;;;;;2.83;2.63;;;21.80;61.40;;;;;;5041598;28;20208;-37
2022/12/12 06:30:11;;;;;;;2.50;2.30;;;21.80;61.40;;;;;;5048299;28;20211;-36
2022/12/12 06:32:38;;;;;;;2.45;2.03;;;21.80;61.30;;;;;;5049797;28;20202;-39
2022/12/12 06:35:06;;;;;;;2.50;2.15;;;21.90;61.40;;;;;;5053309;28;20605;-37
2022/12/12 06:37:33;;;;;;;2.65;2.45;;;21.80;61.20;;;;;;5035346;28;20195;-37
2022/12/12 06:40:00;;;;;;;2.40;2.20;;;21.90;61.20;;;;;;5046461;28;20227;-37
2022/12/12 06:42:26;;;;;;;2.67;2.42;;;21.90;61.20;;;;;;5043850;28;20532;-37
2022/12/12 06:44:53;;;;;;;2.80;2.60;;;21.90;61.10;;;;;;5042987;28;20567;-36
2022/12/12 06:47:20;;;;;;;2.45;2.22;;;21.90;61.00;;;;;;5054453;28;20218;-37
2022/12/12 06:49:47;;;;;;;2.30;2.10;;;21.90;61.10;;;;;;5048677;28;20227;-37
2022/12/12 06:52:15;;;;;;;2.30;2.10;;;21.90;61.00;;;;;;5051784;28;20391;-36
2022/12/12 06:54:41;;;;;;;2.13;1.92;;;21.90;61.00;;;;;;5046943;28;20564;-36
2022/12/12 06:57:08;;;;;;;2.53;2.20;;;21.90;61.00;;;;;;5046577;28;20207;-37
2022/12/12 06:59:35;;;;;;;2.70;2.45;;;21.90;61.00;;;;;;5048940;28;20216;-37
2022/12/12 07:02:01;;;;;;;2.30;2.10;;;21.90;61.10;;;;;;5052456;28;20211;-36
2022/12/12 07:04:28;;;;;;;2.28;2.08;;;21.90;61.00;;;;;;5040861;28;20192;-36
2022/12/12 07:06:55;;;;;;;2.63;2.42;;;21.90;61.10;;;;;;5050169;28;20213;-36
2022/12/12 07:09:23;;;;;;;3.13;2.63;;;21.90;61.00;;;;;;5059779;28;20201;-37
2022/12/12 07:11:49;;;;;;;2.97;2.35;;;21.90;61.10;;;;;;5051726;28;20190;-39
2022/12/12 07:14:16;;;;;;;3.08;2.38;;;21.90;61.10;;;;;;5040065;28;20196;-36
2022/12/12 07:16:43;;;;;;;2.35;1.98;;;21.80;61.10;;;;;;5051776;28;20203;-38
2022/12/12 07:19:10;;;;;;;2.25;1.90;;;21.80;61.10;;;;;;5034103;28;20227;-36
2022/12/12 07:21:37;;;;;;;2.67;1.77;;;21.80;61.10;;;;;;5052236;28;20410;-37
2022/12/12 07:24:04;;;;;;;2.58;2.38;;;21.80;61.20;;;;;;5051876;28;20203;-37
2022/12/12 07:26:32;;;;;;;2.55;2.35;;;21.80;61.10;;;;;;5046928;28;20197;-37
2022/12/12 07:28:58;;;;;;;4.70;2.28;;;21.80;61.20;;;;;;5051702;28;20202;-37
2022/12/12 07:31:25;;;;;;;4.05;2.63;;;21.70;61.20;;;;;;5056190;28;20204;-39
2022/12/12 07:33:53;;;;;;;2.08;1.83;;;21.70;61.20;;;;;;5053433;28;20203;-37
2022/12/12 07:36:21;;;;;;;3.28;2.10;;;21.70;61.20;;;;;;5051322;28;20222;-38
2022/12/12 07:38:48;;;;;;;2.70;2.50;;;21.70;61.20;;;;;;5045233;28;20204;-36
2022/12/12 07:41:17;;;;;;;2.65;2.45;;;21.70;61.20;;;;;;5050907;28;20224;-36
2022/12/12 07:43:45;;;;;;;2.28;2.03;;;21.70;61.20;;;;;;5035530;28;20224;-36
2022/12/12 07:46:14;;;;;;;2.70;2.50;;;21.70;61.20;;;;;;5033573;28;20212;-37
2022/12/12 07:48:42;;;;;;;2.35;1.70;;;21.70;61.10;;;;;;5034366;28;20204;-37
2022/12/12 07:51:09;;;;;;;2.63;2.15;;;21.80;61.20;;;;;;5039261;28;20207;-37
2022/12/12 07:53:36;;;;;;;2.10;1.90;;;21.80;61.20;;;;;;5050619;28;20196;-37
2022/12/12 07:56:05;;;;;;;2.72;2.40;;;21.80;61.10;;;;;;5056010;28;20191;-37
2022/12/12 07:58:32;;;;;;;2.67;1.75;;;21.80;61.10;;;;;;5042056;28;20200;-38
2022/12/12 08:01:00;;;;;;;1.90;1.70;;;21.80;61.10;;;;;;5057433;28;20219;-38
2022/12/12 08:03:26;;;;;;;2.50;2.30;;;21.80;61.00;;;;;;5051241;28;20196;-36
2022/12/12 08:05:53;;;;;;;2.22;1.90;;;21.80;61.00;;;;;;5041181;28;20208;-36
2022/12/12 08:08:20;;;;;;;1.92;1.83;;;21.80;60.90;;;;;;5039147;28;20218;-37
2022/12/12 08:10:46;;;;;;;1.80;1.70;;;21.90;61.00;;;;;;5051891;28;20204;-37
2022/12/12 08:13:13;;;;;;;3.20;2.63;;;21.90;60.90;;;;;;5050437;28;20207;-36
2022/12/12 08:15:41;;;;;;;2.55;2.35;;;21.90;60.90;;;;;;5047773;28;21368;-37
2022/12/12 08:18:09;;;;;;;3.17;2.55;;;21.90;60.90;;;;;;5046527;28;20206;-40
2022/12/12 08:20:39;;;;;;;2.15;1.95;;;21.90;61.00;;;;;;5047280;28;20254;-38
2022/12/12 08:23:06;;;;;;;2.58;2.15;;;21.90;60.90;;;;;;5044371;28;20192;-39
2022/12/12 08:25:34;;;;;;;2.13;1.92;;;21.80;60.90;;;;;;5049794;28;20200;-37
2022/12/12 08:28:01;;;;;;;2.35;2.15;;;21.80;60.90;;;;;;5051456;28;20199;-36
2022/12/12 08:30:28;;;;;;;2.53;2.33;;;21.80;61.00;;;;;;5044085;28;20213;-40
2022/12/12 08:32:55;;;;;;;2.65;2.20;;;21.80;61.00;;;;;;5052403;28;20679;-37
2022/12/12 08:35:23;;;;;;;2.30;2.10;;;21.80;60.90;;;;;;5052918;28;20571;-36
2022/12/12 08:37:50;;;;;;;2.25;2.05;;;21.80;60.90;;;;;;5042587;28;20193;-36
2022/12/12 08:40:16;;;;;;;2.40;2.20;;;21.70;61.00;;;;;;5039904;28;20219;-38
2022/12/12 08:42:43;;;;;;;2.45;2.25;;;21.70;61.00;;;;;;5051157;28;20200;-36
2022/12/12 08:45:10;;;;;;;2.40;2.20;;;21.70;61.10;;;;;;5044896;28;20235;-36
2022/12/12 08:47:37;;;;;;;2.20;2.00;;;21.70;61.10;;;;;;5050995;28;20197;-36
2022/12/12 08:50:05;;;;;;;2.20;2.00;;;21.70;61.10;;;;;;5043400;28;20195;-36
2022/12/12 08:52:33;;;;;;;2.60;1.85;;;21.70;61.00;;;;;;5046039;28;20883;-36
2022/12/12 08:55:00;;;;;;;2.25;2.00;;;21.70;61.10;;;;;;5050516;28;20214;-36
2022/12/12 08:57:27;;;;;;;2.50;2.20;;;21.60;61.10;;;;;;5044971;28;20203;-36
2022/12/12 08:59:53;;;;;;;2.88;2.58;;;21.60;61.40;;;;;;5052185;28;20191;-37
2022/12/12 09:02:20;;;;;;;2.80;2.60;;;21.50;61.40;;;;;;5050652;28;20203;-36
2022/12/12 09:04:47;;;;;;;2.28;1.88;;;21.50;61.50;;;;;;5050448;28;20575;-39
2022/12/12 09:07:13;;;;;;;2.47;2.25;;;21.40;61.60;;;;;;5050483;28;20207;-37
2022/12/12 09:09:41;;;;;;;2.33;2.13;;;21.40;61.90;;;;;;5054256;28;20192;-36
2022/12/12 09:12:09;;;;;;;1.80;1.70;;;21.30;61.90;;;;;;5043392;28;20208;-36
2022/12/12 09:14:35;;;;;;;2.30;2.10;;;21.30;61.80;;;;;;5049192;28;20282;-37
2022/12/12 09:17:02;;;;;;;2.25;2.05;;;21.40;61.80;;;;;;5054040;28;20196;-36
2022/12/12 09:19:29;;;;;;;2.05;1.85;;;21.50;61.50;;;;;;5041139;28;20227;-37
2022/12/12 09:21:55;;;;;;;2.30;2.10;;;21.60;61.50;;;;;;5047804;28;20223;-37
2022/12/12 09:24:22;;;;;;;2.30;1.98;;;21.70;61.30;;;;;;5050362;28;20279;-36
2022/12/12 09:26:51;;;;;;;2.25;2.03;;;21.80;61.20;;;;;;5047544;28;20652;-38
2022/12/12 09:29:17;;;;;;;2.95;2.75;;;21.90;61.20;;;;;;5047948;28;20565;-38
2022/12/12 09:31:44;;;;;;;2.72;2.50;;;22.00;60.80;;;;;;5048898;28;20196;-38
2022/12/12 09:34:11;;;;;;;2.50;2.30;;;22.00;60.80;;;;;;5051340;28;20211;-37
2022/12/12 09:36:37;;;;;;;3.08;2.88;;;22.00;60.20;;;;;;5047353;28;20201;-37
2022/12/12 09:39:04;;;;;;;2.35;2.15;;;22.00;59.90;;;;;;5049166;28;20656;-36
2022/12/12 09:41:31;;;;;;;3.92;2.90;;;22.10;60.00;;;;;;5045815;28;20227;-37
2022/12/12 09:44:02;;;;;;;2.50;2.30;;;22.10;59.80;;;;;;5048717;28;20199;-37
2022/12/12 09:46:37;;;;;;;2.95;2.70;;;22.10;59.90;;;;;;5048671;28;20191;-36
2022/12/12 09:49:14;;;;;;;3.13;2.83;;;22.10;59.80;;;;;;5050844;28;20229;-37
2022/12/12 09:51:43;;;;;;;2.65;2.17;;;22.00;60.00;;;;;;5045444;28;20210;-36
2022/12/12 09:54:14;;;;;;;3.60;3.30;;;22.00;60.10;;;;;;5044682;28;20230;-37
2022/12/12 09:56:49;;;;;;;3.15;2.95;;;22.00;60.20;;;;;;5042333;28;20192;-36
2022/12/12 09:59:26;;;;;;;2.90;2.47;;;22.00;60.00;;;;;;5050459;28;20191;-38
2022/12/12 10:02:02;;;;;;;4.35;2.88;;;22.00;60.90;;;;;;5045488;28;20219;-37
2022/12/12 10:04:38;;;;;;;3.15;2.85;;;22.10;61.10;;;;;;5046133;28;20207;-37
2022/12/12 10:07:10;;;;;;;6.15;2.70;;;22.00;60.80;;;;;;5047660;28;20188;-37
2022/12/12 10:09:59;;;;;;;2.80;2.58;;;22.00;61.00;;;;;;5043075;28;20664;-37
2022/12/12 10:12:27;;;;;;;15.45;13.75;;;21.90;61.10;;;;;;5045809;28;20207;-40
2022/12/12 10:14:59;;;;;;;21.35;16.67;;;21.10;54.40;;;;;;5041684;28;20196;-40
2022/12/12 10:17:29;;;;;;;26.33;19.00;;;20.10;49.50;;;;;;5043482;28;20207;-40
2022/12/12 10:19:59;;;;;;;23.65;19.05;;;19.50;48.90;;;;;;5048694;28;20210;-40
2022/12/12 10:22:34;;;;;;;19.85;17.65;;;18.80;48.10;;;;;;5047034;28;20215;-40
2022/12/12 10:25:08;;;;;;;18.05;14.05;;;18.50;48.70;;;;;;5047522;28;20216;-38
2022/12/12 10:27:35;;;;;;;16.63;13.80;;;19.00;51.10;;;;;;5046901;28;20200;-37
2022/12/12 10:30:15;;;;;;;16.10;12.40;;;19.80;51.50;;;;;;5049326;28;20199;-37
2022/12/12 10:32:55;;;;;;;12.23;9.13;;;20.70;51.90;;;;;;5044775;28;20232;-38
2022/12/12 10:35:29;;;;;;;13.70;8.77;;;21.30;53.10;;;;;;5040256;28;20574;-39
2022/12/12 10:38:07;;;;;;;10.50;8.15;;;21.60;53.60;;;;;;5038781;28;20278;-44
2022/12/12 10:40:42;;;;;;;9.77;8.55;;;21.80;53.80;;;;;;5049604;28;20196;-37
2022/12/12 10:43:17;;;;;;;9.25;7.90;;;22.00;53.60;;;;;;5041184;28;21827;-37
2022/12/12 10:45:58;;;;;;;9.10;7.45;;;22.00;54.10;;;;;;5047074;28;20203;-37
2022/12/12 10:48:26;;;;;;;11.57;7.38;;;22.10;54.30;;;;;;5053490;28;20207;-37
2022/12/12 10:50:58;;;;;;;8.77;6.70;;;22.20;54.30;;;;;;5041598;28;20196;-37
2022/12/12 10:53:25;;;;;;;8.57;6.20;;;22.30;54.60;;;;;;5042986;28;20191;-37
2022/12/12 10:55:56;;;;;;;9.73;5.93;;;22.30;54.60;;;;;;5048674;28;20192;-38
2022/12/12 10:58:26;;;;;;;7.32;6.45;;;22.40;54.80;;;;;;5044155;28;20205;-39
2022/12/12 11:01:02;;;;;;;6.10;5.55;;;22.50;55.00;;;;;;5044064;28;20250;-40
2022/12/12 11:03:32;;;;;;;6.18;5.57;;;22.50;55.10;;;;;;5054266;28;20191;-38
2022/12/12 11:06:06;;;;;;;6.45;5.53;;;22.60;55.30;;;;;;5050915;28;20663;-37
2022/12/12 11:08:34;;;;;;;6.18;5.57;;;22.60;55.40;;;;;;5046099;28;20494;-37
2022/12/12 11:11:07;;;;;;;6.18;5.10;;;22.70;55.40;;;;;;5050912;28;20199;-39
2022/12/12 11:13:43;;;;;;;6.22;5.20;;;22.70;55.50;;;;;;5049867;28;20199;-38
2022/12/12 11:16:17;;;;;;;5.78;4.70;;;22.70;55.70;;;;;;5049261;28;20199;-38
2022/12/12 11:18:58;;;;;;;6.00;5.40;;;22.70;55.80;;;;;;5055244;28;20198;-37
2022/12/12 11:21:25;;;;;;;7.25;5.20;;;22.70;56.00;;;;;;5046445;28;20224;-37
2022/12/12 11:23:54;;;;;;;5.47;4.70;;;22.70;56.10;;;;;;5051673;28;20205;-37
2022/12/12 11:26:22;;;;;;;5.45;4.00;;;22.60;56.20;;;;;;5055654;28;20666;-38
2022/12/12 11:28:54;;;;;;;6.47;4.22;;;22.60;56.30;;;;;;5049283;28;20892;-37
2022/12/12 11:31:27;;;;;;;5.20;4.63;;;22.60;56.50;;;;;;5052625;28;20208;-41
2022/12/12 11:33:57;;;;;;;4.45;4.05;;;22.60;56.60;;;;;;5045672;28;20196;-37
2022/12/12 11:36:30;;;;;;;5.07;4.53;;;22.60;56.70;;;;;;5051113;28;20192;-39
2022/12/12 11:38:58;;;;;;;6.05;4.53;;;22.50;56.80;;;;;;5049449;28;20196;-37
2022/12/12 11:41:24;;;;;;;4.70;4.15;;;22.50;57.00;;;;;;5050421;28;20212;-38
2022/12/12 11:43:59;;;;;;;7.63;4.72;;;22.50;57.00;;;;;;5052234;28;20192;-43
2022/12/12 11:46:29;;;;;;;4.72;4.15;;;22.50;57.20;;;;;;5049705;28;21040;-40
2022/12/12 11:49:01;;;;;;;7.40;5.00;;;22.40;57.30;;;;;;5040852;28;20200;-42
2022/12/12 11:51:35;;;;;;;6.60;4.10;;;22.50;57.50;;;;;;5048252;28;20533;-47
2022/12/12 11:54:03;;;;;;;4.65;3.47;;;22.60;57.60;;;;;;5048086;28;20196;-43
2022/12/12 11:56:50;;;;;;;4.63;4.22;;;22.70;57.50;;;;;;5047304;28;20680;-40
2022/12/12 11:59:53;;;;;;;4.65;4.25;;;22.90;57.40;;;;;;5048031;28;20667;-41
2022/12/12 12:02:49;;;;;;;6.30;4.20;;;23.00;57.30;;;;;;5048064;28;20280;-43
2022/12/12 12:05:27;;;;;;;5.32;4.80;;;23.00;57.40;;;;;;5034734;28;20200;-43
2022/12/12 12:08:14;;;;;;;5.40;3.72;;;23.00;57.50;;;;;;5049500;28;20204;-45
2022/12/12 12:10:53;;;;;;;4.15;3.75;;;23.00;57.70;;;;;;5049965;28;20197;-41
2022/12/12 12:13:32;;;;;;;3.93;3.13;;;23.00;57.80;;;;;;5044441;28;20294;-42
2022/12/12 12:16:11;;;;;;;5.03;4.13;;;23.10;57.90;;;;;;5049109;28;20462;-40
2022/12/12 12:19:00;;;;;;;4.78;4.30;;;23.10;58.00;;;;;;5051165;28;20204;-44
2022/12/12 12:21:36;;;;;;;4.80;3.58;;;23.10;58.00;;;;;;5045757;28;20220;-40
2022/12/12 12:24:17;;;;;;;7.70;3.93;;;23.10;58.00;;;;;;5047152;28;20187;-41
2022/12/12 12:26:53;;;;;;;3.50;3.20;;;23.10;58.10;;;;;;5044690;28;20486;-44
2022/12/12 12:29:40;;;;;;;11.88;3.30;;;23.10;58.10;;;;;;5053010;28;20471;-40
2022/12/12 12:32:15;;;;;;;4.00;3.35;;;23.20;58.20;;;;;;5044565;28;20199;-44
2022/12/12 12:34:52;;;;;;;4.80;3.70;;;23.10;58.20;;;;;;5047845;28;20204;-41
2022/12/12 12:37:35;;;;;;;3.67;3.00;;;23.10;58.30;;;;;;5046532;28;20203;-40
2022/12/12 12:40:24;;;;;;;3.97;3.57;;;23.10;58.40;;;;;;5045194;28;20193;-53
2022/12/12 12:43:10;;;;;;;4.05;3.65;;;23.20;58.50;;;;;;5046456;28;20488;-43
2022/12/12 12:45:44;;;;;;;4.40;3.00;;;23.10;58.40;;;;;;5049802;28;20567;-42
2022/12/12 12:48:18;;;;;;;4.45;3.40;;;23.20;58.60;;;;;;5049888;28;20483;-42
2022/12/12 12:50:51;;;;;;;3.20;2.90;;;23.10;58.60;;;;;;5041291;28;20210;-43
2022/12/12 12:53:31;;;;;;;3.65;2.90;;;23.20;58.80;;;;;;5046787;28;20220;-41
2022/12/12 12:56:02;;;;;;;3.90;2.73;;;23.20;58.60;;;;;;5045254;28;20199;-45
2022/12/12 12:58:34;;;;;;;3.45;2.85;;;23.30;58.50;;;;;;5048141;28;20455;-47
2022/12/12 13:01:07;;;;;;;3.83;3.40;;;23.40;58.40;;;;;;5047739;28;20192;-43
2022/12/12 13:03:40;;;;;;;3.80;3.40;;;23.40;58.40;;;;;;5046706;28;20208;-43
2022/12/12 13:06:15;;;;;;;3.30;3.03;;;23.50;58.30;;;;;;5047696;28;20470;-46
2022/12/12 13:08:50;;;;;;;3.45;3.15;;;23.50;58.40;;;;;;5043140;28;20208;-43
2022/12/12 13:11:22;;;;;;;4.70;3.47;;;23.50;58.40;;;;;;5047946;28;20192;-42
2022/12/12 13:13:50;;;;;;;4.13;3.40;;;23.40;58.40;;;;;;5051061;28;20432;-42
2022/12/12 13:16:20;;;;;;;3.50;3.00;;;23.40;58.50;;;;;;5051684;28;20902;-43
2022/12/12 13:18:55;;;;;;;2.80;2.47;;;23.30;58.60;;;;;;5050166;28;20453;-49